Milwaukee, WI (53209)

10:49 AM CST on February 28, 2017 (GMT -0600)
KWIGLEND3 | | Change Station

Elev 638 ft 43.12 °N, 87.94 °W | Updated 2 minutes ago

Overcast
Overcast
43.5 °F
Feels Like 44 °F
N
3.0
Wind Variable Wind from SE
Gusts 3.0 mph

Today
High -- | Low -- °F
--% Chance of Precip.
Yesterday
High -- | Low -- °F
Precip. -- in
Pressure 29.72 in
Visibility 2.5 miles
Clouds Overcast 600 ft
Windchill 44 °F
Dew Point 42 °F
Humidity 96%
Rainfall 0.10 in
Snow Depth Not available.
6:29 AM 5:40 PM
Waxing Crescent, 5% visible
METAR KMWC 281645Z 11005KT 2 1/2SM BR OVC006 07/06 A2972
Pressure 29.72 in
Visibility 2.5 miles
Clouds Overcast 600 ft
Windchill 44 °F
Dew Point 42 °F
Humidity 96%
Rainfall 0.10 in
Snow Depth Not available.
6:29 AM 5:40 PM
Waxing Crescent, 5% visible
METAR KMWC 281645Z 11005KT 2 1/2SM BR OVC006 07/06 A2972

Get Your Daily Forecast Email!

Thanks for signing up!

Be on the lookout for a verification email in your inbox.

You'll start receiving the daily forecast at 8 AM.

×

10-Day Weather Forecast

Almanac

Astronomy

Feb. 28, 2017 Rise Set
Actual Time
Civil Twilight
Nautical Twilight
Astronomical Twilight
Moon
Length of Visible Light
Length of Day
Tomorrow will be .
, % of the Moon is Illuminated

Today's Extremes

State Highs State Lows

Community

WunderPhotos

Upload Photos

1,962,540 photos uploaded!

WunderBlog® & News

Nearby

Air Quality

  Air Quality AQ Index Pollutant
Not available.

Snow Depth

Station Depth Elevation

Earthquake Activity

City Distance Mag. Time & Date
Minimum magnitude displayed is 2.5.

Coastal Water Temperatures

Place Temperature

Stations

Nearby Weather Stations

Station Location Temp. Windchill Dew Point Humidity Wind Precip. Elev Updated Type
                   

Watches & Warnings

There are currently no watches in effect.